Time;durP1;ratioP1;P1;durP2;ratioP2;P2;SDS_P1;SDS_P2;PMS_P1;PMS_P2;Temp;Humidity;BMP_temperature;BMP_pressure;BME280_temperature;BME280_humidity;BME280_pressure;Samples;Min_cycle;Max_cycle;Signal;HPM_P1;HPM_P2
2023/05/01 00:02:02;;;;;;;2.65;1.33;;;;;;;10.44;100.00;100548.56;5109667;28;20454;-85
2023/05/01 00:04:29;;;;;;;2.63;1.20;;;;;;;10.52;100.00;100552.69;5105656;28;20052;-84
2023/05/01 00:06:56;;;;;;;2.25;1.13;;;;;;;10.11;100.00;100494.94;5111898;28;20083;-85
2023/05/01 00:09:26;;;;;;;2.95;1.23;;;;;;;10.57;100.00;100569.03;5099829;28;20048;-84
2023/05/01 00:11:53;;;;;;;4.25;1.92;;;;;;;10.40;100.00;100541.78;5111822;28;20044;-85
2023/05/01 00:14:19;;;;;;;3.30;1.40;;;;;;;10.48;100.00;100538.84;5110678;28;20050;-84
2023/05/01 00:16:46;;;;;;;2.72;1.20;;;;;;;10.66;100.00;100559.94;5114441;28;20051;-85
2023/05/01 00:19:17;;;;;;;2.85;1.25;;;;;;;10.46;100.00;100535.44;5113669;28;20047;-84
2023/05/01 00:21:46;;;;;;;6.30;1.95;;;;;;;10.61;100.00;100576.72;5112950;28;20048;-84
2023/05/01 00:24:16;;;;;;;2.83;1.25;;;;;;;10.18;100.00;100514.72;5112099;28;20040;-85
2023/05/01 00:26:43;;;;;;;3.65;1.35;;;;;;;10.09;100.00;100531.63;5111763;28;20051;-84
2023/05/01 00:29:10;;;;;;;2.92;1.38;;;;;;;10.15;100.00;100541.03;5114050;28;20166;-84
2023/05/01 00:31:37;;;;;;;2.53;1.25;;;;;;;9.95;100.00;100529.56;5113599;28;20040;-84
2023/05/01 00:34:05;;;;;;;4.68;1.45;;;;;;;9.91;100.00;100548.03;5108850;28;20048;-84
2023/05/01 00:36:31;;;;;;;3.85;1.58;;;;;;;9.81;100.00;100524.84;5111884;28;20039;-85
2023/05/01 00:38:58;;;;;;;6.00;2.05;;;;;;;9.87;100.00;100540.28;5105923;28;20616;-84
2023/05/01 00:41:25;;;;;;;4.40;1.50;;;;;;;9.83;100.00;100541.31;5112604;28;20051;-85
2023/05/01 00:43:52;;;;;;;5.22;1.95;;;;;;;10.02;100.00;100572.88;5108677;28;20059;-84
2023/05/01 00:46:20;;;;;;;3.70;1.45;;;;;;;9.72;100.00;100522.59;5110581;28;20063;-84
2023/05/01 00:48:47;;;;;;;4.78;1.70;;;;;;;9.74;100.00;100531.22;5113144;28;20047;-83
2023/05/01 00:51:14;;;;;;;5.60;1.95;;;;;;;9.56;100.00;100504.00;5111848;28;20057;-85
2023/05/01 00:53:42;;;;;;;5.65;2.00;;;;;;;9.76;100.00;100546.84;5111939;28;20405;-85
2023/05/01 00:56:10;;;;;;;5.63;1.75;;;;;;;9.64;100.00;100527.25;5112149;28;20047;-85
2023/05/01 00:58:37;;;;;;;3.65;1.55;;;;;;;10.05;100.00;100572.75;5111715;28;20054;-85
2023/05/01 01:01:04;;;;;;;3.05;1.23;;;;;;;10.10;100.00;100551.66;5111915;28;20044;-85
2023/05/01 01:03:31;;;;;;;2.55;1.38;;;;;;;10.19;100.00;100532.13;5111902;28;20531;-85
2023/05/01 01:06:10;;;;;;;2.95;1.20;;;;;;;10.39;100.00;100547.94;5113115;28;20048;-85
2023/05/01 01:08:44;;;;;;;3.17;1.20;;;;;;;10.46;100.00;100530.19;5111412;28;20190;-85
2023/05/01 01:11:13;;;;;;;2.45;1.20;;;;;;;10.29;100.00;100498.59;5112177;28;20051;-85
2023/05/01 01:14:07;;;;;;;2.22;1.20;;;;;;;10.54;100.00;100533.38;5109410;28;20117;-85
2023/05/01 01:17:24;;;;;;;2.67;1.17;;;;;;;10.86;100.00;100572.25;5103415;28;20056;-84
2023/05/01 01:20:12;;;;;;;3.55;1.40;;;;;;;10.89;100.00;100579.97;5098263;28;20044;-84
2023/05/01 01:22:44;;;;;;;2.35;1.10;;;;;;;10.57;100.00;100524.53;5099459;28;20059;-85
2023/05/01 01:26:02;;;;;;;2.17;0.95;;;;;;;10.98;100.00;100576.97;5105475;28;20048;-85
2023/05/01 01:28:28;;;;;;;2.30;1.00;;;;;;;10.93;100.00;100574.53;5096243;28;20063;-84
2023/05/01 01:31:16;;;;;;;1.92;1.20;;;;;;;10.99;100.00;100570.81;5113533;28;20530;-84
2023/05/01 01:33:53;;;;;;;3.13;0.90;;;;;;;10.99;100.00;100562.94;5115244;28;20055;-84
2023/05/01 01:36:35;;;;;;;1.90;1.10;;;;;;;11.05;100.00;100556.59;5117158;28;20040;-84
2023/05/01 01:39:27;;;;;;;2.30;1.10;;;;;;;10.81;100.00;100544.47;5117115;28;20051;-84
2023/05/01 01:41:57;;;;;;;3.58;1.08;;;;;;;10.85;100.00;100539.09;5102856;28;20048;-84
2023/05/01 01:44:36;;;;;;;1.70;0.95;;;;;;;10.75;100.00;100531.63;5116299;28;20044;-84
2023/05/01 01:47:06;;;;;;;2.20;0.90;;;;;;;10.86;100.00;100546.91;5115661;28;20057;-86
2023/05/01 01:49:37;;;;;;;1.80;1.00;;;;;;;10.72;100.00;100536.16;5115624;28;20071;-86
2023/05/01 01:52:06;;;;;;;2.33;1.13;;;;;;;10.73;100.00;100540.47;5110841;28;20043;-85
2023/05/01 01:54:39;;;;;;;2.85;1.17;;;;;;;10.47;100.00;100525.84;5111749;28;20060;-85
2023/05/01 01:57:08;;;;;;;3.28;1.33;;;;;;;10.47;100.00;100545.00;5104761;28;20051;-85
2023/05/01 01:59:35;;;;;;;2.97;1.30;;;;;;;10.04;100.00;100492.56;5115116;28;20052;-85
2023/05/01 02:02:03;;;;;;;2.63;1.17;;;;;;;10.19;100.00;100521.66;5116054;28;20061;-85
2023/05/01 02:04:32;;;;;;;3.03;1.30;;;;;;;10.18;100.00;100523.44;5110823;28;20055;-85
2023/05/01 02:07:00;;;;;;;2.65;1.13;;;;;;;9.86;100.00;100475.84;5112314;28;20044;-86
2023/05/01 02:09:28;;;;;;;4.53;1.27;;;;;;;10.22;100.00;100540.72;5104071;28;20519;-86
2023/05/01 02:11:56;;;;;;;2.15;1.00;;;;;;;10.08;100.00;100490.69;5107763;28;20048;-85
2023/05/01 02:14:25;;;;;;;2.20;1.08;;;;;;;10.16;100.00;100498.22;5114726;28;20066;-84
2023/05/01 02:16:53;;;;;;;2.47;1.08;;;;;;;10.23;100.00;100508.41;5108693;28;20121;-85
2023/05/01 02:19:21;;;;;;;2.17;1.00;;;;;;;10.22;100.00;100505.84;5114760;28;20079;-85
2023/05/01 02:21:51;;;;;;;2.30;1.00;;;;;;;10.10;100.00;100488.88;5115458;28;20059;-86
2023/05/01 02:24:21;;;;;;;2.17;0.93;;;;;;;10.22;100.00;100503.22;5100265;28;20047;-84
2023/05/01 02:26:53;;;;;;;1.42;0.80;;;;;;;10.45;100.00;100538.97;5114426;28;20051;-85
2023/05/01 02:29:20;;;;;;;2.13;1.10;;;;;;;10.43;100.00;100535.59;5112553;28;20051;-84
2023/05/01 02:31:47;;;;;;;2.45;1.10;;;;;;;10.51;100.00;100536.09;5113995;28;20069;-84
2023/05/01 02:34:13;;;;;;;2.13;1.00;;;;;;;10.43;100.00;100515.47;5114227;28;20543;-84
2023/05/01 02:36:40;;;;;;;1.80;0.90;;;;;;;10.40;100.00;100501.66;5112712;28;20077;-85
2023/05/01 02:39:07;;;;;;;2.45;0.95;;;;;;;10.53;100.00;100534.28;5111124;28;20428;-84
2023/05/01 02:41:34;;;;;;;3.42;1.10;;;;;;;10.50;100.00;100523.94;5121495;27;20023;-84
2023/05/01 02:44:03;;;;;;;1.58;0.90;;;;;;;10.24;100.00;100491.78;5114646;28;20048;-85
2023/05/01 02:46:36;;;;;;;2.00;0.95;;;;;;;10.54;100.00;100529.91;5115024;28;20039;-85
2023/05/01 02:49:04;;;;;;;1.02;0.80;;;;;;;10.20;100.00;100473.66;5110895;28;20048;-84
2023/05/01 02:51:33;;;;;;;1.25;0.80;;;;;;;10.45;100.00;100518.03;5112064;28;20055;-84
2023/05/01 02:54:00;;;;;;;2.42;1.00;;;;;;;10.28;100.00;100487.28;5113562;28;20044;-84
2023/05/01 02:56:28;;;;;;;1.80;1.00;;;;;;;10.18;100.00;100478.97;5111339;28;20070;-84
2023/05/01 02:58:55;;;;;;;1.75;0.90;;;;;;;10.16;100.00;100488.59;5114060;28;20760;-84
2023/05/01 03:01:22;;;;;;;1.88;1.15;;;;;;;10.42;100.00;100519.00;5113939;28;20048;-84
2023/05/01 03:03:49;;;;;;;1.95;1.00;;;;;;;10.39;100.00;100529.63;5113787;28;20051;-84
2023/05/01 03:06:15;;;;;;;1.73;0.93;;;;;;;10.25;100.00;100506.56;5113785;28;20047;-84
2023/05/01 03:08:43;;;;;;;1.10;0.88;;;;;;;10.41;100.00;100525.16;5111988;28;20383;-83
2023/05/01 03:11:09;;;;;;;3.65;1.10;;;;;;;10.27;100.00;100502.13;5109772;28;20051;-84
2023/05/01 03:13:36;;;;;;;1.30;0.90;;;;;;;10.07;100.00;100468.94;5113073;28;20092;-84
2023/05/01 03:16:03;;;;;;;2.10;1.00;;;;;;;10.47;100.00;100538.94;5108215;28;20047;-83
2023/05/01 03:18:30;;;;;;;1.45;0.90;;;;;;;10.56;100.00;100541.16;5114040;28;20126;-83
2023/05/01 03:20:57;;;;;;;3.35;1.10;;;;;;;10.28;100.00;100505.59;5114348;28;20048;-84
2023/05/01 03:23:24;;;;;;;1.45;0.90;;;;;;;10.24;100.00;100494.41;5112177;28;20048;-83
2023/05/01 03:25:51;;;;;;;2.03;0.95;;;;;;;10.47;100.00;100521.44;5109500;28;20485;-83
2023/05/01 03:28:17;;;;;;;3.60;1.00;;;;;;;10.48;100.00;100512.66;5111317;28;20520;-84
2023/05/01 03:30:44;;;;;;;2.33;1.08;;;;;;;10.56;100.00;100515.81;5113093;28;20044;-84
2023/05/01 03:33:11;;;;;;;2.55;1.10;;;;;;;10.44;100.00;100508.47;5112439;28;20051;-85
2023/05/01 03:35:38;;;;;;;1.63;0.90;;;;;;;10.34;100.00;100492.31;5113706;28;20473;-84
2023/05/01 03:38:05;;;;;;;1.45;0.88;;;;;;;10.40;100.00;100520.00;5112231;28;20058;-85
2023/05/01 03:40:31;;;;;;;2.08;1.00;;;;;;;10.01;100.00;100465.69;5101840;28;20039;-85
2023/05/01 03:42:58;;;;;;;2.28;1.13;;;;;;;10.10;100.00;100488.03;5112630;28;20101;-85
2023/05/01 03:45:25;;;;;;;2.25;1.00;;;;;;;10.12;100.00;100499.28;5107749;28;20385;-84
2023/05/01 03:47:51;;;;;;;1.75;0.90;;;;;;;10.22;100.00;100513.69;5112941;28;20051;-83
2023/05/01 03:50:18;;;;;;;1.75;0.93;;;;;;;10.25;100.00;100531.88;5114076;28;20131;-84
2023/05/01 03:52:45;;;;;;;2.53;1.30;;;;;;;9.88;100.00;100481.88;5112007;28;20062;-85
2023/05/01 03:55:12;;;;;;;1.63;1.10;;;;;;;9.69;100.00;100462.56;5113515;28;20054;-84
2023/05/01 03:57:38;;;;;;;1.45;1.00;;;;;;;9.58;100.00;100476.03;5113534;28;20051;-85
2023/05/01 04:00:06;;;;;;;1.42;0.90;;;;;;;9.65;100.00;100500.16;5113035;28;20052;-85
2023/05/01 04:02:33;;;;;;;1.67;0.95;;;;;;;9.37;100.00;100493.38;5113086;28;20804;-85
2023/05/01 04:05:00;;;;;;;2.70;1.20;;;;;;;9.27;100.00;100465.88;5111967;28;20083;-85
2023/05/01 04:07:26;;;;;;;3.50;1.10;;;;;;;9.54;100.00;100507.56;5109920;28;20720;-84
2023/05/01 04:09:53;;;;;;;2.60;1.13;;;;;;;9.32;100.00;100474.38;5091861;28;20044;-83
2023/05/01 04:12:20;;;;;;;3.15;1.20;;;;;;;9.72;100.00;100540.88;5107754;28;20047;-83
2023/05/01 04:14:47;;;;;;;3.60;1.35;;;;;;;9.59;100.00;100519.56;5108340;28;20056;-84
2023/05/01 04:17:14;;;;;;;2.80;1.05;;;;;;;9.46;100.00;100484.34;5107507;28;20048;-84
2023/05/01 04:19:41;;;;;;;2.53;1.13;;;;;;;9.47;100.00;100489.53;5112309;28;20480;-84
2023/05/01 04:22:07;;;;;;;2.90;1.20;;;;;;;9.47;100.00;100484.28;5112746;28;20051;-84
2023/05/01 04:24:35;;;;;;;2.72;1.13;;;;;;;9.72;100.00;100525.19;5112183;28;20072;-85
2023/05/01 04:27:02;;;;;;;7.10;1.65;;;;;;;9.62;100.00;100514.22;5102729;28;20043;-85
2023/05/01 04:29:28;;;;;;;2.47;1.20;;;;;;;9.34;100.00;100453.44;5111765;28;20492;-85
2023/05/01 04:31:55;;;;;;;2.15;1.10;;;;;;;9.71;100.00;100517.41;5109779;28;20051;-85
2023/05/01 04:34:22;;;;;;;2.20;1.00;;;;;;;9.59;100.00;100489.97;5111442;28;20050;-85
2023/05/01 04:36:50;;;;;;;1.50;1.10;;;;;;;9.63;100.00;100504.59;5112278;28;20051;-85
2023/05/01 04:39:17;;;;;;;2.15;1.10;;;;;;;9.26;100.00;100454.56;5108454;28;20059;-85
2023/05/01 04:41:44;;;;;;;3.08;1.10;;;;;;;9.46;100.00;100489.56;5112153;28;20040;-84
2023/05/01 04:44:11;;;;;;;4.30;1.25;;;;;;;9.38;100.00;100479.38;5111646;28;20048;-85
2023/05/01 04:46:38;;;;;;;2.08;1.08;;;;;;;9.49;100.00;100498.16;5112288;28;20473;-85
2023/05/01 04:49:05;;;;;;;2.25;1.00;;;;;;;9.63;100.00;100521.16;5113394;28;20053;-84
2023/05/01 04:51:31;;;;;;;3.90;1.10;;;;;;;9.52;100.00;100510.22;5111358;28;20087;-85
2023/05/01 04:53:58;;;;;;;4.07;1.30;;;;;;;9.36;100.00;100496.03;5111007;28;20055;-86
2023/05/01 04:56:25;;;;;;;3.90;1.35;;;;;;;9.29;100.00;100482.34;5111978;27;20059;-85
2023/05/01 04:58:52;;;;;;;3.28;1.20;;;;;;;9.51;100.00;100519.00;5099386;28;20461;-85
2023/05/01 05:01:19;;;;;;;4.25;1.15;;;;;;;9.60;100.00;100541.34;5108574;28;20048;-85
2023/05/01 05:03:45;;;;;;;4.55;1.40;;;;;;;9.65;100.00;100521.09;5112213;28;20055;-85
2023/05/01 05:06:15;;;;;;;3.42;1.00;;;;;;;9.88;100.00;100528.94;5107778;28;20047;-85
2023/05/01 05:08:42;;;;;;;3.03;1.20;;;;;;;10.00;100.00;100501.44;5125107;27;20139;-84
2023/05/01 05:11:09;;;;;;;2.58;1.35;;;;;;;10.22;100.00;100519.78;5091880;28;20076;-84
2023/05/01 05:13:36;;;;;;;2.83;1.15;;;;;;;10.18;100.00;100502.50;5105930;28;20118;-84
2023/05/01 05:16:03;;;;;;;3.08;1.13;;;;;;;10.14;100.00;100472.13;5110028;28;20050;-83
2023/05/01 05:18:30;;;;;;;2.70;1.10;;;;;;;10.60;100.00;100535.72;5101068;28;20131;-83
2023/05/01 05:20:56;;;;;;;4.60;1.30;;;;;;;10.84;100.00;100538.25;5109525;28;20039;-84
2023/05/01 05:23:23;;;;;;;2.85;1.20;;;;;;;10.63;100.00;100493.72;5109039;28;20056;-85
2023/05/01 05:25:50;;;;;;;4.60;1.95;;;;;;;10.83;100.00;100512.97;5110022;28;20048;-84
2023/05/01 05:28:17;;;;;;;3.50;1.48;;;;;;;11.13;100.00;100546.66;5100707;28;20044;-84
2023/05/01 05:30:45;;;;;;;3.55;1.25;;;;;;;10.90;100.00;100519.66;5107457;28;20059;-84
2023/05/01 05:33:12;;;;;;;2.67;1.30;;;;;;;11.01;100.00;100527.94;5103563;28;20589;-84
2023/05/01 05:35:39;;;;;;;2.65;1.10;;;;;;;11.07;100.00;100526.81;5108874;28;20109;-84
2023/05/01 05:38:05;;;;;;;3.80;1.63;;;;;;;11.23;100.00;100549.75;5107768;28;20048;-84
2023/05/01 05:40:32;;;;;;;3.90;1.55;;;;;;;11.16;100.00;100560.47;5101366;28;20070;-84
2023/05/01 05:42:59;;;;;;;3.60;1.30;;;;;;;11.15;100.00;100529.09;5109579;28;20491;-85
2023/05/01 05:45:26;;;;;;;5.38;1.30;;;;;;;11.34;100.00;100544.88;5108101;28;20101;-84
2023/05/01 05:47:52;;;;;;;6.57;1.27;;;;;;;11.64;100.00;100592.47;5108185;28;20051;-84
2023/05/01 05:50:19;;;;;;;5.38;1.45;;;;;;;11.36;100.00;100533.38;5106625;28;20044;-84
2023/05/01 05:52:46;;;;;;;5.30;1.63;;;;;;;11.18;100.00;100489.66;5106247;28;20053;-84
2023/05/01 05:55:12;;;;;;;3.22;1.35;;;;;;;11.82;100.00;100582.94;5106123;28;20412;-84
2023/05/01 05:57:39;;;;;;;4.47;1.33;;;;;;;11.59;100.00;100594.44;5110932;28;20052;-85
2023/05/01 06:00:08;;;;;;;5.40;1.35;;;;;;;11.84;100.00;100596.81;5107811;28;20645;-85
2023/05/01 06:02:35;;;;;;;3.13;1.20;;;;;;;11.96;100.00;100591.06;5109392;28;20485;-83
2023/05/01 06:05:03;;;;;;;3.70;1.30;;;;;;;12.10;100.00;100577.31;5101332;28;20478;-84
2023/05/01 06:07:29;;;;;;;2.58;1.15;;;;;;;12.57;100.00;100610.13;5110397;28;20571;-86
2023/05/01 06:10:03;;;;;;;4.07;1.08;;;;;;;12.21;100.00;100554.97;5099087;28;20099;-84
2023/05/01 06:12:30;;;;;;;;;;;;;;;12.63;100.00;100587.97;5107618;28;20036;-84
2023/05/01 06:14:58;;;;;;;2.08;0.98;;;;;;;12.61;100.00;100595.06;5097876;28;20364;-84
2023/05/01 06:17:25;;;;;;;3.10;1.10;;;;;;;12.00;100.00;100555.03;5106650;28;20047;-84
2023/05/01 06:19:52;;;;;;;3.60;1.13;;;;;;;11.96;100.00;100648.78;5109282;28;20496;-85
2023/05/01 06:22:19;;;;;;;1.92;0.98;;;;;;;11.25;100.00;100618.66;5111792;28;20062;-85
2023/05/01 06:24:46;;;;;;;1.20;0.80;;;;;;;10.77;100.00;100628.47;5109366;28;20044;-85
2023/05/01 06:27:13;;;;;;;2.78;0.90;;;;;;;10.45;100.00;100597.41;5107161;28;20059;-85
2023/05/01 06:29:40;;;;;;;1.77;1.08;;;;;;;10.55;100.00;100650.28;5115003;28;20047;-86
2023/05/01 06:32:06;;;;;;;2.88;0.80;;;;;;;11.01;100.00;100681.63;5114115;28;20385;-85
2023/05/01 06:34:33;;;;;;;1.75;0.80;;;;;;;10.68;100.00;100671.59;5106763;28;20055;-82
2023/05/01 06:37:00;;;;;;;1.95;0.80;;;;;;;10.35;100.00;100614.38;5114735;28;20117;-83
2023/05/01 06:39:26;;;;;;;1.85;0.90;;;;;;;10.40;100.00;100625.53;5113575;28;20052;-83
2023/05/01 06:41:53;;;;;;;2.20;0.80;;;;;;;10.78;100.00;100667.69;5110592;28;20048;-82
2023/05/01 06:44:20;;;;;;;2.60;1.08;;;;;;;10.50;100.00;100672.28;5110419;28;20086;-82
2023/05/01 06:46:47;;;;;;;2.35;0.82;;;;;;;10.48;100.00;100681.97;5101865;28;20463;-83
2023/05/01 06:49:14;;;;;;;1.50;0.85;;;;;;;11.20;100.00;100694.84;5109374;28;20056;-82
2023/05/01 06:51:41;;;;;;;3.95;0.90;;;;;;;11.99;100.00;100684.53;5108857;28;20058;-82
2023/05/01 06:54:07;;;;;;;4.70;0.90;;;;;;;11.90;100.00;100696.28;5105444;28;20052;-83
2023/05/01 06:56:34;;;;;;;3.67;1.08;;;;;;;11.87;100.00;100693.75;5108335;28;20479;-83
2023/05/01 06:59:01;;;;;;;2.47;0.80;;;;;;;11.79;100.00;100711.59;5101451;28;20055;-83
2023/05/01 07:01:28;;;;;;;3.45;1.33;;;;;;;11.15;100.00;100675.84;5108457;28;20039;-84
2023/05/01 07:03:56;;;;;;;7.38;1.20;;;;;;;11.13;100.00;100672.44;5111437;28;20044;-83
2023/05/01 07:06:23;;;;;;;4.43;1.25;;;;;;;10.78;100.00;100683.41;5114760;28;20048;-83
2023/05/01 07:08:50;;;;;;;3.55;1.10;;;;;;;10.92;100.00;100711.66;5097222;28;20131;-83
2023/05/01 07:11:17;;;;;;;3.85;1.08;;;;;;;11.26;100.00;100757.50;5105119;28;20144;-83
2023/05/01 07:13:44;;;;;;;6.35;1.10;;;;;;;11.29;100.00;100756.53;5105245;27;20100;-83
2023/05/01 07:16:11;;;;;;;4.80;1.20;;;;;;;10.96;100.00;100738.59;5097568;28;20679;-83
2023/05/01 07:18:38;;;;;;;4.03;1.13;;;;;;;10.47;100.00;100728.25;5103912;28;20058;-83
2023/05/01 07:21:05;;;;;;;5.65;1.30;;;;;;;10.36;100.00;100680.69;5111123;28;20044;-83
2023/05/01 07:23:31;;;;;;;5.38;1.13;;;;;;;11.21;100.00;100769.94;5107926;28;20558;-83
2023/05/01 07:25:58;;;;;;;5.97;1.23;;;;;;;11.17;100.00;100729.03;5103375;28;20059;-83
2023/05/01 07:28:25;;;;;;;5.50;1.30;;;;;;;10.85;100.00;100715.44;5106918;28;20048;-83
2023/05/01 07:30:51;;;;;;;6.20;1.40;;;;;;;11.44;100.00;100786.50;5112458;28;20048;-83
2023/05/01 07:33:18;;;;;;;4.20;1.30;;;;;;;11.10;100.00;100743.28;5107431;28;20408;-83
2023/05/01 07:35:45;;;;;;;5.65;1.40;;;;;;;11.32;100.00;100756.41;5102695;28;20052;-83
2023/05/01 07:38:12;;;;;;;4.88;1.42;;;;;;;11.05;100.00;100751.34;5095788;28;20067;-83
2023/05/01 07:40:39;;;;;;;4.97;1.40;;;;;;;10.98;100.00;100795.28;5097280;28;20496;-83
2023/05/01 07:43:09;;;;;;;7.82;1.40;;;;;;;10.66;100.00;100796.50;5107938;28;20059;-82
2023/05/01 07:45:40;;;;;;;6.38;1.63;;;;;;;10.23;100.00;100745.66;5112537;28;20097;-83
2023/05/01 07:48:07;;;;;;;6.55;1.50;;;;;;;10.36;100.00;100782.75;5129699;27;20127;-83
2023/05/01 07:50:34;;;;;;;8.50;1.60;;;;;;;10.62;100.00;100811.47;5107455;28;20040;-82
2023/05/01 07:53:00;;;;;;;5.22;1.00;;;;;;;10.58;100.00;100788.06;5113041;28;20051;-82
2023/05/01 07:55:27;;;;;;;9.00;1.75;;;;;;;10.24;100.00;100797.09;5105850;28;20047;-82
2023/05/01 07:57:54;;;;;;;9.32;1.65;;;;;;;10.06;100.00;100793.34;5105037;28;20051;-82
2023/05/01 08:00:21;;;;;;;6.93;1.65;;;;;;;10.02;100.00;100825.72;5109210;28;20075;-81
2023/05/01 08:02:50;;;;;;;10.57;1.80;;;;;;;9.59;100.00;100787.94;5102607;28;20465;-81
2023/05/01 08:05:17;;;;;;;11.35;1.90;;;;;;;9.89;100.00;100800.00;5107962;28;20382;-82
2023/05/01 08:07:44;;;;;;;6.10;1.67;;;;;;;10.12;100.00;100784.44;5100160;28;20476;-81
2023/05/01 08:10:10;;;;;;;10.00;1.45;;;;;;;10.31;100.00;100809.06;5102173;28;20059;-80
2023/05/01 08:12:38;;;;;;;7.95;1.42;;;;;;;10.72;100.00;100818.97;5101659;28;20101;-81
2023/05/01 08:15:05;;;;;;;5.70;1.40;;;;;;;10.59;100.00;100805.47;5104768;28;20056;-81
2023/05/01 08:17:33;;;;;;;4.32;1.23;;;;;;;10.59;100.00;100824.66;5098835;28;20056;-79
2023/05/01 08:20:01;;;;;;;8.73;1.70;;;;;;;10.55;100.00;100806.47;5108787;28;20048;-82
2023/05/01 08:22:28;;;;;;;6.78;1.42;;;;;;;11.06;100.00;100854.38;5105571;28;20044;-82
2023/05/01 08:24:55;;;;;;;6.28;1.40;;;;;;;11.04;100.00;100817.75;5092724;28;20048;-82
2023/05/01 08:27:21;;;;;;;10.55;1.52;;;;;;;11.57;100.00;100838.38;5108852;28;20635;-81
2023/05/01 08:29:48;;;;;;;8.93;1.98;;;;;;;11.86;100.00;100852.09;5095093;28;20066;-80
2023/05/01 08:32:17;;;;;;;10.30;1.52;;;;;;;11.98;100.00;100842.03;5111674;28;20048;-80
2023/05/01 08:34:44;;;;;;;3.88;1.13;;;;;;;11.40;100.00;100849.56;5105491;28;20048;-82
2023/05/01 08:37:11;;;;;;;4.22;1.05;;;;;;;11.51;100.00;100862.25;5100542;28;20060;-80
2023/05/01 08:39:38;;;;;;;4.55;1.48;;;;;;;11.10;100.00;100835.88;5107734;28;20100;-80
2023/05/01 08:42:04;;;;;;;4.90;1.65;;;;;;;11.09;100.00;100865.59;5103653;28;20050;-81
2023/05/01 08:44:32;;;;;;;8.40;1.70;;;;;;;11.30;100.00;100863.94;5096327;28;20056;-81
2023/05/01 08:47:11;;;;;;;12.32;1.90;;;;;;;11.58;100.00;100884.69;5108597;28;20043;-80
2023/05/01 08:49:40;;;;;;;7.80;1.60;;;;;;;12.02;100.00;100869.84;5106480;28;20085;-83
2023/05/01 08:52:10;;;;;;;5.60;1.50;;;;;;;11.98;100.00;100915.53;5092922;28;20052;-80
2023/05/01 08:54:45;;;;;;;8.40;2.15;;;;;;;11.77;100.00;100895.31;5102393;27;20047;-80
2023/05/01 08:57:13;;;;;;;8.98;1.50;;;;;;;11.40;100.00;100891.50;5103618;28;20126;-81
2023/05/01 08:59:40;;;;;;;4.82;1.33;;;;;;;11.60;100.00;100887.25;5100622;28;20755;-80
2023/05/01 09:02:08;;;;;;;7.72;1.73;;;;;;;11.36;100.00;100907.41;5108167;28;20055;-81
2023/05/01 09:04:39;;;;;;;6.28;1.30;;;;;;;11.10;100.00;100918.84;5107204;28;20097;-80
2023/05/01 09:07:08;;;;;;;6.40;1.20;;;;;;;10.56;100.00;100919.00;5099303;28;20062;-80
2023/05/01 09:09:35;;;;;;;4.53;1.42;;;;;;;10.42;100.00;100923.88;5107807;28;20499;-80
2023/05/01 09:12:14;;;;;;;4.53;1.58;;;;;;;10.29;100.00;100944.34;5109088;28;20039;-80
2023/05/01 09:14:41;;;;;;;7.63;1.60;;;;;;;10.11;100.00;100901.31;5103374;28;20051;-81
2023/05/01 09:17:08;;;;;;;5.32;1.48;;;;;;;10.13;100.00;100933.53;5105244;28;20028;-82
2023/05/01 09:19:35;;;;;;;5.78;1.30;;;;;;;10.11;100.00;100964.13;5105557;28;20048;-81
2023/05/01 09:22:02;;;;;;;4.85;1.48;;;;;;;9.92;100.00;100935.06;5103886;28;20054;-81
2023/05/01 09:24:29;;;;;;;7.68;1.70;;;;;;;10.03;100.00;100985.25;5098536;28;20052;-83
2023/05/01 09:26:57;;;;;;;9.70;1.73;;;;;;;9.84;100.00;100965.81;5093450;28;20052;-83
2023/05/01 09:29:40;;;;;;;26.63;3.13;;;;;;;10.40;100.00;100970.19;5109549;28;20047;-83
2023/05/01 09:32:26;;;;;;;10.60;2.42;;;;;;;10.27;100.00;100941.75;5100635;28;20055;-83
2023/05/01 09:34:55;;;;;;;10.30;2.63;;;;;;;10.38;100.00;100956.31;5108701;28;20168;-83
2023/05/01 09:37:33;;;;;;;11.77;3.50;;;;;;;10.20;100.00;100936.78;5109991;28;20051;-83
2023/05/01 09:40:13;;;;;;;11.75;2.20;;;;;;;10.47;100.00;100984.78;5094692;28;20044;-83
2023/05/01 09:42:51;;;;;;;8.20;1.77;;;;;;;10.59;100.00;100966.03;5104504;28;20051;-83
2023/05/01 09:45:18;;;;;;;11.38;2.97;;;;;;;10.44;100.00;100969.16;5095251;28;20464;-83
2023/05/01 09:47:46;;;;;;;10.35;2.30;;;;;;;10.25;100.00;100993.31;5100386;28;20051;-83
2023/05/01 09:50:31;;;;;;;9.98;2.42;;;;;;;9.87;100.00;100977.03;5114376;28;20067;-84
2023/05/01 09:53:03;;;;;;;5.78;1.70;;;;;;;9.72;100.00;100966.19;5115627;27;20044;-83
2023/05/01 09:55:31;;;;;;;4.50;1.42;;;;;;;9.92;100.00;100992.59;5103701;28;20139;-83
2023/05/01 09:57:58;;;;;;;6.60;1.40;;;;;;;10.20;100.00;100989.97;5108297;28;20117;-83
2023/05/01 10:00:25;;;;;;;6.70;1.40;;;;;;;10.24;100.00;100978.50;5100719;28;20067;-83
2023/05/01 10:02:52;;;;;;;4.90;1.25;;;;;;;10.35;100.00;101001.72;5106892;28;20047;-83
2023/05/01 10:05:19;;;;;;;9.88;1.40;;;;;;;10.60;100.00;100993.06;5109768;28;20044;-82
2023/05/01 10:08:01;;;;;;;7.47;1.80;;;;;;;10.56;100.00;101017.66;5108466;28;20047;-83
2023/05/01 10:10:28;;;;;;;6.43;1.60;;;;;;;10.96;100.00;101024.16;5113174;28;20078;-83
2023/05/01 10:12:55;;;;;;;7.45;1.52;;;;;;;10.43;100.00;100983.19;5113971;28;20044;-82
2023/05/01 10:15:22;;;;;;;7.63;1.52;;;;;;;10.49;100.00;100979.50;5105415;28;20059;-82
2023/05/01 10:17:53;;;;;;;6.50;1.40;;;;;;;10.24;100.00;100975.88;5114039;28;20100;-83
2023/05/01 10:20:20;;;;;;;7.93;1.45;;;;;;;10.19;100.00;100996.09;5116219;28;20662;-82
2023/05/01 10:22:47;;;;;;;7.65;1.50;;;;;;;10.91;100.00;101024.31;5110957;28;20055;-83
2023/05/01 10:25:16;;;;;;;13.45;2.00;;;;;;;10.60;100.00;100999.16;5107619;28;20055;-83
2023/05/01 10:27:43;;;;;;;11.10;1.80;;;;;;;10.74;100.00;101053.69;5096037;28;20052;-83
2023/05/01 10:30:11;;;;;;;8.35;1.60;;;;;;;10.92;100.00;101028.63;5109093;28;20634;-82
2023/05/01 10:32:40;;;;;;;6.88;1.67;;;;;;;10.69;100.00;101052.13;5105934;28;20382;-82
2023/05/01 10:35:13;;;;;;;6.68;1.60;;;;;;;11.09;100.00;101064.75;5103057;28;20382;-82
2023/05/01 10:38:03;;;;;;;8.98;1.65;;;;;;;10.63;100.00;101082.00;5111643;28;20043;-83
2023/05/01 10:40:39;;;;;;;7.30;1.52;;;;;;;10.60;100.00;101082.94;5099707;28;20048;-82
2023/05/01 10:43:28;;;;;;;7.63;1.52;;;;;;;10.74;100.00;101085.13;5106035;28;20680;-82
2023/05/01 10:46:19;;;;;;;12.15;2.00;;;;;;;11.08;100.00;101091.00;5102549;28;20400;-83
2023/05/01 10:48:51;;;;;;;7.03;1.42;;;;;;;10.83;100.00;101112.78;5114586;28;20047;-83
2023/05/01 10:51:23;;;;;;;7.97;2.55;;;;;;;10.81;100.00;101115.44;5109386;28;20052;-83
2023/05/01 10:54:11;;;;;;;6.57;1.60;;;;;;;10.96;100.00;101140.31;5108491;28;20135;-83
2023/05/01 10:56:38;;;;;;;7.93;1.40;;;;;;;10.73;100.00;101129.69;5105956;28;20130;-83
2023/05/01 10:59:05;;;;;;;6.10;1.27;;;;;;;10.59;100.00;101128.38;5097363;28;20056;-83
2023/05/01 11:01:36;;;;;;;4.78;1.33;;;;;;;10.45;100.00;101127.97;5117240;27;20047;-82
2023/05/01 11:04:07;;;;;;;3.03;1.10;;;;;;;10.53;100.00;101109.38;5109212;28;20058;-82
2023/05/01 11:06:36;;;;;;;3.92;1.13;;;;;;;10.84;100.00;101151.19;5105748;28;20044;-83
2023/05/01 11:09:38;;;;;;;5.15;1.27;;;;;;;10.99;100.00;101141.97;5102130;28;20048;-83
2023/05/01 11:12:06;;;;;;;5.95;1.35;;;;;;;11.16;100.00;101142.25;5107538;28;20539;-82
2023/05/01 11:14:51;;;;;;;5.45;1.20;;;;;;;10.64;100.00;101154.41;5104177;28;20051;-82
2023/05/01 11:17:48;;;;;;;4.78;1.05;;;;;;;10.62;100.00;101156.22;5100174;28;20056;-82
2023/05/01 11:20:24;;;;;;;2.50;0.90;;;;;;;10.92;100.00;101159.63;5093429;28;20405;-81
2023/05/01 11:22:52;;;;;;;3.70;0.90;;;;;;;10.62;100.00;101156.22;5108507;28;20044;-82
2023/05/01 11:25:26;;;;;;;4.57;1.10;;;;;;;10.48;100.00;101112.13;5113493;28;20062;-82
2023/05/01 11:27:56;;;;;;;3.90;1.13;;;;;;;10.75;100.00;101149.72;5115021;27;20051;-82
2023/05/01 11:30:23;;;;;;;6.65;1.10;;;;;;;10.64;100.00;101109.88;5114305;28;20082;-81